sensor_id;sensor_type;location;lat;lon;timestamp;P1;durP1;ratioP1;P2;durP2;ratioP2
79139;SDS011;68546;59.142;37.948;2023-11-19T00:01:32;249.13;;;74.80;;
79139;SDS011;68546;59.142;37.948;2023-11-19T00:03:58;248.82;;;74.57;;
79139;SDS011;68546;59.142;37.948;2023-11-19T00:06:24;251.23;;;74.65;;
79139;SDS011;68546;59.142;37.948;2023-11-19T00:08:51;250.18;;;75.25;;
79139;SDS011;68546;59.142;37.948;2023-11-19T00:11:17;248.23;;;74.50;;
79139;SDS011;68546;59.142;37.948;2023-11-19T00:13:43;247.88;;;75.13;;
79139;SDS011;68546;59.142;37.948;2023-11-19T00:16:09;245.98;;;74.07;;
79139;SDS011;68546;59.142;37.948;2023-11-19T00:18:36;246.40;;;73.83;;
79139;SDS011;68546;59.142;37.948;2023-11-19T00:21:02;247.40;;;74.63;;
79139;SDS011;68546;59.142;37.948;2023-11-19T00:23:28;247.85;;;74.70;;
79139;SDS011;68546;59.142;37.948;2023-11-19T00:25:56;248.37;;;74.60;;
79139;SDS011;68546;59.142;37.948;2023-11-19T00:28:22;248.23;;;74.53;;
79139;SDS011;68546;59.142;37.948;2023-11-19T00:30:49;247.15;;;74.47;;
79139;SDS011;68546;59.142;37.948;2023-11-19T00:33:16;246.70;;;74.40;;
79139;SDS011;68546;59.142;37.948;2023-11-19T00:35:42;247.15;;;74.70;;
79139;SDS011;68546;59.142;37.948;2023-11-19T00:38:09;246.65;;;74.60;;
79139;SDS011;68546;59.142;37.948;2023-11-19T00:40:35;246.27;;;74.10;;
79139;SDS011;68546;59.142;37.948;2023-11-19T00:43:01;245.37;;;73.87;;
79139;SDS011;68546;59.142;37.948;2023-11-19T00:45:28;245.15;;;73.90;;
79139;SDS011;68546;59.142;37.948;2023-11-19T00:47:55;243.55;;;73.53;;
79139;SDS011;68546;59.142;37.948;2023-11-19T00:50:21;245.63;;;74.27;;
79139;SDS011;68546;59.142;37.948;2023-11-19T00:52:48;243.57;;;73.43;;
79139;SDS011;68546;59.142;37.948;2023-11-19T00:55:14;249.00;;;75.20;;
79139;SDS011;68546;59.142;37.948;2023-11-19T00:57:41;245.70;;;73.82;;
79139;SDS011;68546;59.142;37.948;2023-11-19T01:00:08;245.80;;;73.90;;
79139;SDS011;68546;59.142;37.948;2023-11-19T01:02:44;246.38;;;74.38;;
79139;SDS011;68546;59.142;37.948;2023-11-19T01:05:11;245.55;;;74.22;;
79139;SDS011;68546;59.142;37.948;2023-11-19T01:07:40;246.03;;;73.87;;
79139;SDS011;68546;59.142;37.948;2023-11-19T01:10:07;247.63;;;74.70;;
79139;SDS011;68546;59.142;37.948;2023-11-19T01:12:34;245.98;;;73.95;;
79139;SDS011;68546;59.142;37.948;2023-11-19T01:15:00;247.33;;;74.37;;
79139;SDS011;68546;59.142;37.948;2023-11-19T01:17:30;245.50;;;73.57;;
79139;SDS011;68546;59.142;37.948;2023-11-19T01:19:57;247.07;;;74.43;;
79139;SDS011;68546;59.142;37.948;2023-11-19T01:22:23;246.32;;;74.00;;
79139;SDS011;68546;59.142;37.948;2023-11-19T01:24:50;247.23;;;74.72;;
79139;SDS011;68546;59.142;37.948;2023-11-19T01:27:17;248.70;;;75.25;;
79139;SDS011;68546;59.142;37.948;2023-11-19T01:29:44;246.88;;;74.60;;
79139;SDS011;68546;59.142;37.948;2023-11-19T01:32:10;248.70;;;74.57;;
79139;SDS011;68546;59.142;37.948;2023-11-19T01:34:38;248.40;;;74.50;;
79139;SDS011;68546;59.142;37.948;2023-11-19T01:37:04;246.77;;;74.35;;
79139;SDS011;68546;59.142;37.948;2023-11-19T01:39:30;247.97;;;74.37;;
79139;SDS011;68546;59.142;37.948;2023-11-19T01:41:57;246.73;;;73.85;;
79139;SDS011;68546;59.142;37.948;2023-11-19T01:44:23;246.75;;;74.50;;
79139;SDS011;68546;59.142;37.948;2023-11-19T01:46:49;246.13;;;74.10;;
79139;SDS011;68546;59.142;37.948;2023-11-19T01:49:16;250.63;;;75.05;;
79139;SDS011;68546;59.142;37.948;2023-11-19T01:51:45;248.00;;;74.95;;
79139;SDS011;68546;59.142;37.948;2023-11-19T01:54:13;246.57;;;74.25;;
79139;SDS011;68546;59.142;37.948;2023-11-19T01:56:41;245.47;;;73.80;;
79139;SDS011;68546;59.142;37.948;2023-11-19T01:59:09;243.95;;;73.45;;
79139;SDS011;68546;59.142;37.948;2023-11-19T02:01:38;245.27;;;73.85;;
79139;SDS011;68546;59.142;37.948;2023-11-19T02:04:08;243.60;;;73.57;;
79139;SDS011;68546;59.142;37.948;2023-11-19T02:06:36;243.15;;;73.32;;
79139;SDS011;68546;59.142;37.948;2023-11-19T02:09:06;242.85;;;73.68;;
79139;SDS011;68546;59.142;37.948;2023-11-19T02:11:33;242.02;;;73.32;;
79139;SDS011;68546;59.142;37.948;2023-11-19T02:14:00;246.20;;;74.38;;
79139;SDS011;68546;59.142;37.948;2023-11-19T02:16:28;244.52;;;74.05;;
79139;SDS011;68546;59.142;37.948;2023-11-19T02:18:55;244.88;;;74.28;;
79139;SDS011;68546;59.142;37.948;2023-11-19T02:21:21;243.47;;;73.03;;
79139;SDS011;68546;59.142;37.948;2023-11-19T02:23:48;241.88;;;73.15;;
79139;SDS011;68546;59.142;37.948;2023-11-19T02:28:49;245.07;;;73.97;;
79139;SDS011;68546;59.142;37.948;2023-11-19T02:31:15;241.55;;;72.88;;
79139;SDS011;68546;59.142;37.948;2023-11-19T02:33:42;239.77;;;72.63;;
79139;SDS011;68546;59.142;37.948;2023-11-19T02:36:08;240.60;;;73.00;;
79139;SDS011;68546;59.142;37.948;2023-11-19T02:38:35;241.68;;;73.50;;
79139;SDS011;68546;59.142;37.948;2023-11-19T02:41:03;241.50;;;73.80;;
79139;SDS011;68546;59.142;37.948;2023-11-19T02:43:33;240.55;;;72.85;;
79139;SDS011;68546;59.142;37.948;2023-11-19T02:46:01;241.27;;;72.70;;
79139;SDS011;68546;59.142;37.948;2023-11-19T02:48:28;240.40;;;72.88;;
79139;SDS011;68546;59.142;37.948;2023-11-19T02:50:56;238.25;;;72.25;;
79139;SDS011;68546;59.142;37.948;2023-11-19T02:53:24;239.03;;;72.50;;
79139;SDS011;68546;59.142;37.948;2023-11-19T02:55:53;240.43;;;73.20;;
79139;SDS011;68546;59.142;37.948;2023-11-19T02:58:19;239.45;;;72.85;;
79139;SDS011;68546;59.142;37.948;2023-11-19T03:00:45;240.10;;;73.20;;
79139;SDS011;68546;59.142;37.948;2023-11-19T03:03:19;241.63;;;73.05;;
79139;SDS011;68546;59.142;37.948;2023-11-19T03:05:48;240.13;;;73.50;;
79139;SDS011;68546;59.142;37.948;2023-11-19T03:08:15;237.88;;;72.18;;
79139;SDS011;68546;59.142;37.948;2023-11-19T03:10:42;239.77;;;73.00;;
79139;SDS011;68546;59.142;37.948;2023-11-19T03:13:12;238.23;;;72.47;;
79139;SDS011;68546;59.142;37.948;2023-11-19T03:15:40;236.05;;;72.00;;
79139;SDS011;68546;59.142;37.948;2023-11-19T03:18:07;239.60;;;72.60;;
79139;SDS011;68546;59.142;37.948;2023-11-19T03:20:34;237.50;;;72.05;;
79139;SDS011;68546;59.142;37.948;2023-11-19T03:23:00;236.43;;;71.90;;
79139;SDS011;68546;59.142;37.948;2023-11-19T03:25:27;237.27;;;72.00;;
79139;SDS011;68546;59.142;37.948;2023-11-19T03:28:00;240.52;;;73.03;;
79139;SDS011;68546;59.142;37.948;2023-11-19T03:30:30;238.65;;;72.70;;
79139;SDS011;68546;59.142;37.948;2023-11-19T03:32:57;239.32;;;72.65;;
79139;SDS011;68546;59.142;37.948;2023-11-19T03:35:24;237.77;;;72.07;;
79139;SDS011;68546;59.142;37.948;2023-11-19T03:37:50;237.07;;;72.20;;
79139;SDS011;68546;59.142;37.948;2023-11-19T03:40:17;235.00;;;71.90;;
79139;SDS011;68546;59.142;37.948;2023-11-19T03:42:46;237.90;;;72.60;;
79139;SDS011;68546;59.142;37.948;2023-11-19T03:45:13;236.45;;;72.47;;
79139;SDS011;68546;59.142;37.948;2023-11-19T03:47:40;236.43;;;72.28;;
79139;SDS011;68546;59.142;37.948;2023-11-19T03:50:07;241.75;;;72.43;;
79139;SDS011;68546;59.142;37.948;2023-11-19T03:52:35;240.98;;;73.22;;
79139;SDS011;68546;59.142;37.948;2023-11-19T03:55:01;238.68;;;72.68;;
79139;SDS011;68546;59.142;37.948;2023-11-19T03:57:30;238.18;;;72.57;;
79139;SDS011;68546;59.142;37.948;2023-11-19T03:59:57;241.33;;;73.00;;
79139;SDS011;68546;59.142;37.948;2023-11-19T04:02:24;236.50;;;71.68;;
79139;SDS011;68546;59.142;37.948;2023-11-19T04:04:54;238.38;;;72.70;;
79139;SDS011;68546;59.142;37.948;2023-11-19T04:07:21;238.77;;;72.37;;
79139;SDS011;68546;59.142;37.948;2023-11-19T04:09:47;236.00;;;71.88;;
79139;SDS011;68546;59.142;37.948;2023-11-19T04:12:14;236.00;;;72.05;;
79139;SDS011;68546;59.142;37.948;2023-11-19T04:14:41;235.93;;;71.95;;
79139;SDS011;68546;59.142;37.948;2023-11-19T04:17:07;236.88;;;72.13;;
79139;SDS011;68546;59.142;37.948;2023-11-19T04:19:34;234.13;;;71.72;;
79139;SDS011;68546;59.142;37.948;2023-11-19T04:22:00;234.48;;;71.85;;
79139;SDS011;68546;59.142;37.948;2023-11-19T04:24:27;234.07;;;71.57;;
79139;SDS011;68546;59.142;37.948;2023-11-19T04:26:54;235.45;;;72.07;;
79139;SDS011;68546;59.142;37.948;2023-11-19T04:29:20;235.00;;;71.93;;
79139;SDS011;68546;59.142;37.948;2023-11-19T04:31:47;235.47;;;72.00;;
79139;SDS011;68546;59.142;37.948;2023-11-19T04:34:14;236.65;;;72.47;;
79139;SDS011;68546;59.142;37.948;2023-11-19T04:36:41;235.05;;;71.82;;
79139;SDS011;68546;59.142;37.948;2023-11-19T04:39:07;233.98;;;71.90;;
79139;SDS011;68546;59.142;37.948;2023-11-19T04:44:15;238.20;;;72.97;;
79139;SDS011;68546;59.142;37.948;2023-11-19T04:46:42;235.80;;;72.10;;
79139;SDS011;68546;59.142;37.948;2023-11-19T04:49:11;239.13;;;73.07;;
79139;SDS011;68546;59.142;37.948;2023-11-19T04:51:43;235.93;;;72.15;;
79139;SDS011;68546;59.142;37.948;2023-11-19T04:54:11;232.15;;;71.03;;
79139;SDS011;68546;59.142;37.948;2023-11-19T04:56:37;234.63;;;71.80;;
79139;SDS011;68546;59.142;37.948;2023-11-19T04:59:04;233.35;;;71.32;;
79139;SDS011;68546;59.142;37.948;2023-11-19T05:01:34;235.60;;;72.18;;
79139;SDS011;68546;59.142;37.948;2023-11-19T05:04:01;234.52;;;72.32;;
79139;SDS011;68546;59.142;37.948;2023-11-19T05:06:28;236.25;;;72.53;;
79139;SDS011;68546;59.142;37.948;2023-11-19T05:09:00;234.57;;;72.28;;
79139;SDS011;68546;59.142;37.948;2023-11-19T05:11:27;236.93;;;72.10;;
79139;SDS011;68546;59.142;37.948;2023-11-19T05:13:54;233.03;;;71.50;;
79139;SDS011;68546;59.142;37.948;2023-11-19T05:16:20;233.88;;;71.68;;
79139;SDS011;68546;59.142;37.948;2023-11-19T05:18:46;232.50;;;71.97;;
79139;SDS011;68546;59.142;37.948;2023-11-19T05:21:13;233.73;;;71.73;;
79139;SDS011;68546;59.142;37.948;2023-11-19T05:23:39;232.15;;;71.47;;
79139;SDS011;68546;59.142;37.948;2023-11-19T05:26:07;234.85;;;73.32;;
79139;SDS011;68546;59.142;37.948;2023-11-19T05:28:34;231.55;;;71.35;;
79139;SDS011;68546;59.142;37.948;2023-11-19T05:31:00;231.77;;;70.97;;
79139;SDS011;68546;59.142;37.948;2023-11-19T05:33:27;230.75;;;70.80;;
79139;SDS011;68546;59.142;37.948;2023-11-19T05:35:53;230.77;;;71.43;;
79139;SDS011;68546;59.142;37.948;2023-11-19T05:38:19;229.43;;;70.30;;
79139;SDS011;68546;59.142;37.948;2023-11-19T05:40:46;231.00;;;71.30;;
79139;SDS011;68546;59.142;37.948;2023-11-19T05:43:14;230.65;;;70.90;;
79139;SDS011;68546;59.142;37.948;2023-11-19T05:45:42;230.87;;;70.30;;
79139;SDS011;68546;59.142;37.948;2023-11-19T05:48:09;231.85;;;70.70;;
79139;SDS011;68546;59.142;37.948;2023-11-19T05:50:36;232.05;;;71.30;;
79139;SDS011;68546;59.142;37.948;2023-11-19T05:53:02;231.02;;;71.25;;
79139;SDS011;68546;59.142;37.948;2023-11-19T05:55:33;231.30;;;71.13;;
79139;SDS011;68546;59.142;37.948;2023-11-19T05:58:00;231.60;;;71.28;;
79139;SDS011;68546;59.142;37.948;2023-11-19T06:00:26;229.82;;;70.50;;
79139;SDS011;68546;59.142;37.948;2023-11-19T06:02:53;229.03;;;70.60;;
79139;SDS011;68546;59.142;37.948;2023-11-19T06:05:19;229.85;;;71.47;;
79139;SDS011;68546;59.142;37.948;2023-11-19T06:07:45;226.48;;;69.85;;
79139;SDS011;68546;59.142;37.948;2023-11-19T06:10:11;225.93;;;69.90;;
79139;SDS011;68546;59.142;37.948;2023-11-19T06:12:39;224.15;;;69.40;;
79139;SDS011;68546;59.142;37.948;2023-11-19T06:15:07;222.60;;;69.18;;
79139;SDS011;68546;59.142;37.948;2023-11-19T06:17:37;225.63;;;70.28;;
79139;SDS011;68546;59.142;37.948;2023-11-19T06:20:04;225.32;;;69.95;;
79139;SDS011;68546;59.142;37.948;2023-11-19T06:22:31;222.65;;;69.20;;
79139;SDS011;68546;59.142;37.948;2023-11-19T06:24:57;222.50;;;69.28;;
79139;SDS011;68546;59.142;37.948;2023-11-19T06:27:24;220.37;;;68.27;;
79139;SDS011;68546;59.142;37.948;2023-11-19T06:29:50;220.13;;;68.28;;
79139;SDS011;68546;59.142;37.948;2023-11-19T06:32:16;221.85;;;69.18;;
79139;SDS011;68546;59.142;37.948;2023-11-19T06:34:43;222.73;;;69.73;;
79139;SDS011;68546;59.142;37.948;2023-11-19T06:37:09;215.85;;;67.53;;
79139;SDS011;68546;59.142;37.948;2023-11-19T06:39:35;216.30;;;68.10;;
79139;SDS011;68546;59.142;37.948;2023-11-19T06:42:02;223.05;;;68.03;;
79139;SDS011;68546;59.142;37.948;2023-11-19T06:44:29;217.85;;;68.47;;
79139;SDS011;68546;59.142;37.948;2023-11-19T06:46:55;217.20;;;68.35;;
79139;SDS011;68546;59.142;37.948;2023-11-19T06:49:22;214.68;;;67.63;;
79139;SDS011;68546;59.142;37.948;2023-11-19T06:51:48;216.40;;;68.13;;
79139;SDS011;68546;59.142;37.948;2023-11-19T06:54:14;218.02;;;68.47;;
79139;SDS011;68546;59.142;37.948;2023-11-19T06:56:41;211.73;;;66.43;;
79139;SDS011;68546;59.142;37.948;2023-11-19T06:59:08;218.03;;;68.37;;
79139;SDS011;68546;59.142;37.948;2023-11-19T07:01:35;213.02;;;66.70;;
79139;SDS011;68546;59.142;37.948;2023-11-19T07:04:02;215.75;;;68.05;;
79139;SDS011;68546;59.142;37.948;2023-11-19T07:06:35;213.52;;;67.05;;
79139;SDS011;68546;59.142;37.948;2023-11-19T07:09:02;216.93;;;68.47;;
79139;SDS011;68546;59.142;37.948;2023-11-19T07:11:39;215.32;;;68.03;;
79139;SDS011;68546;59.142;37.948;2023-11-19T07:14:09;215.98;;;68.05;;
79139;SDS011;68546;59.142;37.948;2023-11-19T07:16:35;213.50;;;66.90;;
79139;SDS011;68546;59.142;37.948;2023-11-19T07:19:05;216.02;;;67.90;;
79139;SDS011;68546;59.142;37.948;2023-11-19T07:21:31;213.00;;;66.90;;
79139;SDS011;68546;59.142;37.948;2023-11-19T07:24:05;214.50;;;67.60;;
79139;SDS011;68546;59.142;37.948;2023-11-19T07:26:31;211.68;;;66.85;;
79139;SDS011;68546;59.142;37.948;2023-11-19T07:28:57;209.95;;;66.63;;
79139;SDS011;68546;59.142;37.948;2023-11-19T07:31:24;207.10;;;65.63;;
79139;SDS011;68546;59.142;37.948;2023-11-19T07:33:50;208.35;;;66.32;;
79139;SDS011;68546;59.142;37.948;2023-11-19T07:36:16;210.10;;;66.68;;
79139;SDS011;68546;59.142;37.948;2023-11-19T07:38:43;208.30;;;65.97;;
79139;SDS011;68546;59.142;37.948;2023-11-19T07:41:09;204.03;;;65.03;;
79139;SDS011;68546;59.142;37.948;2023-11-19T07:43:44;202.73;;;64.95;;
79139;SDS011;68546;59.142;37.948;2023-11-19T07:46:12;203.60;;;65.03;;
79139;SDS011;68546;59.142;37.948;2023-11-19T07:48:39;202.83;;;64.93;;
79139;SDS011;68546;59.142;37.948;2023-11-19T07:51:06;200.07;;;64.35;;
79139;SDS011;68546;59.142;37.948;2023-11-19T07:53:33;199.77;;;64.25;;
79139;SDS011;68546;59.142;37.948;2023-11-19T07:55:59;199.05;;;64.88;;
79139;SDS011;68546;59.142;37.948;2023-11-19T07:58:26;203.02;;;65.53;;
79139;SDS011;68546;59.142;37.948;2023-11-19T08:00:52;204.75;;;66.40;;
79139;SDS011;68546;59.142;37.948;2023-11-19T08:03:18;202.90;;;64.47;;
79139;SDS011;68546;59.142;37.948;2023-11-19T08:05:45;203.80;;;64.60;;
79139;SDS011;68546;59.142;37.948;2023-11-19T08:08:12;201.73;;;64.03;;
79139;SDS011;68546;59.142;37.948;2023-11-19T08:10:38;200.75;;;64.43;;
79139;SDS011;68546;59.142;37.948;2023-11-19T08:13:05;202.80;;;65.63;;
79139;SDS011;68546;59.142;37.948;2023-11-19T08:15:33;197.45;;;63.50;;
79139;SDS011;68546;59.142;37.948;2023-11-19T08:17:59;197.60;;;63.70;;
79139;SDS011;68546;59.142;37.948;2023-11-19T08:20:25;195.15;;;63.45;;
79139;SDS011;68546;59.142;37.948;2023-11-19T08:22:51;198.45;;;64.20;;
79139;SDS011;68546;59.142;37.948;2023-11-19T08:25:18;194.23;;;63.33;;
79139;SDS011;68546;59.142;37.948;2023-11-19T08:27:44;193.20;;;62.72;;
79139;SDS011;68546;59.142;37.948;2023-11-19T08:30:11;190.83;;;61.73;;
79139;SDS011;68546;59.142;37.948;2023-11-19T08:32:38;191.23;;;62.22;;
79139;SDS011;68546;59.142;37.948;2023-11-19T08:35:04;187.63;;;61.47;;
79139;SDS011;68546;59.142;37.948;2023-11-19T08:37:31;187.07;;;62.07;;
79139;SDS011;68546;59.142;37.948;2023-11-19T08:39:57;189.93;;;62.17;;
79139;SDS011;68546;59.142;37.948;2023-11-19T08:42:23;180.82;;;60.53;;
79139;SDS011;68546;59.142;37.948;2023-11-19T08:44:50;182.98;;;61.25;;
79139;SDS011;68546;59.142;37.948;2023-11-19T08:47:16;186.65;;;62.10;;
79139;SDS011;68546;59.142;37.948;2023-11-19T08:49:46;180.10;;;60.10;;
79139;SDS011;68546;59.142;37.948;2023-11-19T08:52:13;179.63;;;60.13;;
79139;SDS011;68546;59.142;37.948;2023-11-19T08:54:42;178.90;;;59.73;;
79139;SDS011;68546;59.142;37.948;2023-11-19T08:57:09;176.13;;;59.08;;
79139;SDS011;68546;59.142;37.948;2023-11-19T08:59:35;177.60;;;59.20;;
79139;SDS011;68546;59.142;37.948;2023-11-19T09:02:05;179.17;;;60.60;;
79139;SDS011;68546;59.142;37.948;2023-11-19T09:04:31;175.73;;;59.47;;
79139;SDS011;68546;59.142;37.948;2023-11-19T09:06:58;172.57;;;58.75;;
79139;SDS011;68546;59.142;37.948;2023-11-19T09:09:24;170.95;;;58.45;;
79139;SDS011;68546;59.142;37.948;2023-11-19T09:11:51;180.68;;;59.35;;
79139;SDS011;68546;59.142;37.948;2023-11-19T09:14:17;173.73;;;59.83;;
79139;SDS011;68546;59.142;37.948;2023-11-19T09:16:44;168.88;;;58.50;;
79139;SDS011;68546;59.142;37.948;2023-11-19T09:19:10;169.90;;;58.40;;
79139;SDS011;68546;59.142;37.948;2023-11-19T09:21:37;167.85;;;57.88;;
79139;SDS011;68546;59.142;37.948;2023-11-19T09:24:05;169.77;;;58.13;;
79139;SDS011;68546;59.142;37.948;2023-11-19T09:26:33;174.47;;;59.10;;
79139;SDS011;68546;59.142;37.948;2023-11-19T09:29:02;166.40;;;57.50;;
79139;SDS011;68546;59.142;37.948;2023-11-19T09:31:28;168.30;;;58.80;;
79139;SDS011;68546;59.142;37.948;2023-11-19T09:33:55;166.50;;;57.42;;
79139;SDS011;68546;59.142;37.948;2023-11-19T09:36:21;166.77;;;57.58;;
79139;SDS011;68546;59.142;37.948;2023-11-19T09:38:48;163.10;;;57.35;;
79139;SDS011;68546;59.142;37.948;2023-11-19T09:41:15;159.18;;;56.40;;
79139;SDS011;68546;59.142;37.948;2023-11-19T09:43:42;158.97;;;55.97;;
79139;SDS011;68546;59.142;37.948;2023-11-19T09:46:09;158.75;;;56.83;;
79139;SDS011;68546;59.142;37.948;2023-11-19T09:48:39;157.45;;;56.10;;
79139;SDS011;68546;59.142;37.948;2023-11-19T09:51:08;157.67;;;56.00;;
79139;SDS011;68546;59.142;37.948;2023-11-19T09:53:36;154.18;;;55.25;;
79139;SDS011;68546;59.142;37.948;2023-11-19T09:56:04;152.88;;;55.15;;
79139;SDS011;68546;59.142;37.948;2023-11-19T09:58:34;152.48;;;55.08;;
79139;SDS011;68546;59.142;37.948;2023-11-19T10:01:00;154.65;;;55.40;;
79139;SDS011;68546;59.142;37.948;2023-11-19T10:03:33;152.45;;;55.25;;
79139;SDS011;68546;59.142;37.948;2023-11-19T10:06:03;151.75;;;54.90;;
79139;SDS011;68546;59.142;37.948;2023-11-19T10:08:32;150.13;;;54.60;;
79139;SDS011;68546;59.142;37.948;2023-11-19T10:10:59;150.20;;;54.28;;
79139;SDS011;68546;59.142;37.948;2023-11-19T10:13:26;148.07;;;53.88;;
79139;SDS011;68546;59.142;37.948;2023-11-19T10:15:53;150.60;;;55.17;;
79139;SDS011;68546;59.142;37.948;2023-11-19T10:18:27;147.88;;;53.97;;
79139;SDS011;68546;59.142;37.948;2023-11-19T10:20:54;150.77;;;55.28;;
79139;SDS011;68546;59.142;37.948;2023-11-19T10:23:21;147.98;;;54.15;;
79139;SDS011;68546;59.142;37.948;2023-11-19T10:25:47;147.25;;;54.50;;
79139;SDS011;68546;59.142;37.948;2023-11-19T10:28:16;146.35;;;54.75;;
79139;SDS011;68546;59.142;37.948;2023-11-19T10:30:44;146.82;;;54.22;;
79139;SDS011;68546;59.142;37.948;2023-11-19T10:35:56;145.70;;;54.05;;
79139;SDS011;68546;59.142;37.948;2023-11-19T10:38:23;144.95;;;53.75;;
79139;SDS011;68546;59.142;37.948;2023-11-19T10:40:51;142.50;;;53.53;;
79139;SDS011;68546;59.142;37.948;2023-11-19T10:43:18;141.75;;;53.05;;
79139;SDS011;68546;59.142;37.948;2023-11-19T10:45:47;139.73;;;52.67;;
79139;SDS011;68546;59.142;37.948;2023-11-19T10:48:13;136.82;;;52.33;;
79139;SDS011;68546;59.142;37.948;2023-11-19T10:50:41;140.70;;;52.83;;
79139;SDS011;68546;59.142;37.948;2023-11-19T10:53:11;137.05;;;52.53;;
79139;SDS011;68546;59.142;37.948;2023-11-19T10:55:45;137.38;;;52.60;;
79139;SDS011;68546;59.142;37.948;2023-11-19T10:58:15;136.93;;;52.40;;
79139;SDS011;68546;59.142;37.948;2023-11-19T11:00:51;135.43;;;52.42;;
79139;SDS011;68546;59.142;37.948;2023-11-19T11:03:22;137.90;;;52.67;;
79139;SDS011;68546;59.142;37.948;2023-11-19T11:05:52;135.90;;;52.07;;
79139;SDS011;68546;59.142;37.948;2023-11-19T11:08:19;133.23;;;51.08;;
79139;SDS011;68546;59.142;37.948;2023-11-19T11:10:53;132.52;;;51.47;;
79139;SDS011;68546;59.142;37.948;2023-11-19T11:13:22;136.07;;;51.70;;
79139;SDS011;68546;59.142;37.948;2023-11-19T11:15:58;143.43;;;53.42;;
79139;SDS011;68546;59.142;37.948;2023-11-19T11:18:25;144.00;;;53.35;;
79139;SDS011;68546;59.142;37.948;2023-11-19T11:21:00;139.57;;;52.75;;
79139;SDS011;68546;59.142;37.948;2023-11-19T11:26:48;143.13;;;53.38;;
79139;SDS011;68546;59.142;37.948;2023-11-19T11:28:59;145.32;;;53.65;;
79139;SDS011;68546;59.142;37.948;2023-11-19T11:36:48;147.70;;;54.38;;
79139;SDS011;68546;59.142;37.948;2023-11-19T11:39:39;153.82;;;55.13;;
79139;SDS011;68546;59.142;37.948;2023-11-19T11:45:07;151.00;;;55.25;;
79139;SDS011;68546;59.142;37.948;2023-11-19T11:50:14;155.73;;;56.33;;
79139;SDS011;68546;59.142;37.948;2023-11-19T11:55:26;156.13;;;56.65;;
79139;SDS011;68546;59.142;37.948;2023-11-19T11:57:53;155.20;;;55.30;;
79139;SDS011;68546;59.142;37.948;2023-11-19T12:02:55;156.82;;;56.17;;
79139;SDS011;68546;59.142;37.948;2023-11-19T12:05:22;154.82;;;55.85;;
79139;SDS011;68546;59.142;37.948;2023-11-19T12:08:01;158.10;;;55.47;;
79139;SDS011;68546;59.142;37.948;2023-11-19T12:10:54;156.32;;;55.83;;
79139;SDS011;68546;59.142;37.948;2023-11-19T12:13:29;162.25;;;57.05;;
79139;SDS011;68546;59.142;37.948;2023-11-19T12:16:12;160.70;;;57.03;;
79139;SDS011;68546;59.142;37.948;2023-11-19T12:18:39;159.88;;;56.90;;
79139;SDS011;68546;59.142;37.948;2023-11-19T12:21:06;159.82;;;56.60;;
79139;SDS011;68546;59.142;37.948;2023-11-19T12:23:35;160.30;;;57.07;;
79139;SDS011;68546;59.142;37.948;2023-11-19T12:26:20;157.98;;;56.83;;
79139;SDS011;68546;59.142;37.948;2023-11-19T12:28:57;162.18;;;56.97;;
79139;SDS011;68546;59.142;37.948;2023-11-19T12:31:24;162.50;;;57.40;;
79139;SDS011;68546;59.142;37.948;2023-11-19T12:33:51;163.45;;;57.58;;
79139;SDS011;68546;59.142;37.948;2023-11-19T12:36:19;161.98;;;56.92;;
79139;SDS011;68546;59.142;37.948;2023-11-19T12:38:45;163.48;;;56.92;;
79139;SDS011;68546;59.142;37.948;2023-11-19T12:41:11;163.40;;;56.73;;
79139;SDS011;68546;59.142;37.948;2023-11-19T12:43:39;165.85;;;57.72;;
79139;SDS011;68546;59.142;37.948;2023-11-19T12:46:21;164.15;;;57.35;;
79139;SDS011;68546;59.142;37.948;2023-11-19T12:48:49;171.80;;;58.67;;
79139;SDS011;68546;59.142;37.948;2023-11-19T12:51:16;168.52;;;57.55;;
79139;SDS011;68546;59.142;37.948;2023-11-19T12:53:50;168.98;;;58.33;;
79139;SDS011;68546;59.142;37.948;2023-11-19T12:56:20;171.70;;;58.65;;
79139;SDS011;68546;59.142;37.948;2023-11-19T12:58:47;174.07;;;59.00;;
79139;SDS011;68546;59.142;37.948;2023-11-19T13:01:17;174.77;;;59.35;;
79139;SDS011;68546;59.142;37.948;2023-11-19T13:03:45;174.77;;;58.97;;
79139;SDS011;68546;59.142;37.948;2023-11-19T13:06:12;173.97;;;58.63;;
79139;SDS011;68546;59.142;37.948;2023-11-19T13:08:43;174.93;;;58.88;;
79139;SDS011;68546;59.142;37.948;2023-11-19T13:11:33;181.05;;;59.38;;
79139;SDS011;68546;59.142;37.948;2023-11-19T13:14:02;181.40;;;60.90;;
79139;SDS011;68546;59.142;37.948;2023-11-19T13:16:37;188.98;;;61.13;;
79139;SDS011;68546;59.142;37.948;2023-11-19T13:19:04;179.88;;;60.92;;
79139;SDS011;68546;59.142;37.948;2023-11-19T13:21:31;178.75;;;60.33;;
79139;SDS011;68546;59.142;37.948;2023-11-19T13:23:57;181.82;;;60.92;;
79139;SDS011;68546;59.142;37.948;2023-11-19T13:26:23;177.80;;;60.28;;
79139;SDS011;68546;59.142;37.948;2023-11-19T13:28:50;178.00;;;60.45;;
79139;SDS011;68546;59.142;37.948;2023-11-19T13:31:17;176.60;;;59.70;;
79139;SDS011;68546;59.142;37.948;2023-11-19T13:33:43;176.43;;;59.83;;
79139;SDS011;68546;59.142;37.948;2023-11-19T13:36:09;173.82;;;58.97;;
79139;SDS011;68546;59.142;37.948;2023-11-19T13:38:36;175.70;;;59.30;;
79139;SDS011;68546;59.142;37.948;2023-11-19T13:41:03;175.82;;;58.83;;
79139;SDS011;68546;59.142;37.948;2023-11-19T13:43:34;173.00;;;59.00;;
79139;SDS011;68546;59.142;37.948;2023-11-19T13:46:01;176.43;;;60.28;;
79139;SDS011;68546;59.142;37.948;2023-11-19T13:48:27;179.35;;;60.35;;
79139;SDS011;68546;59.142;37.948;2023-11-19T13:50:55;177.48;;;60.05;;
79139;SDS011;68546;59.142;37.948;2023-11-19T13:53:21;175.93;;;59.50;;
79139;SDS011;68546;59.142;37.948;2023-11-19T13:55:49;175.23;;;58.87;;
79139;SDS011;68546;59.142;37.948;2023-11-19T13:58:16;174.85;;;59.70;;
79139;SDS011;68546;59.142;37.948;2023-11-19T14:00:42;178.02;;;60.15;;
79139;SDS011;68546;59.142;37.948;2023-11-19T14:03:09;182.40;;;60.17;;
79139;SDS011;68546;59.142;37.948;2023-11-19T14:05:37;179.13;;;59.65;;
79139;SDS011;68546;59.142;37.948;2023-11-19T14:08:07;182.18;;;59.97;;
79139;SDS011;68546;59.142;37.948;2023-11-19T14:10:37;180.65;;;60.03;;
79139;SDS011;68546;59.142;37.948;2023-11-19T14:13:07;185.48;;;61.38;;
79139;SDS011;68546;59.142;37.948;2023-11-19T14:15:33;184.48;;;61.25;;
79139;SDS011;68546;59.142;37.948;2023-11-19T14:18:01;183.63;;;60.65;;
79139;SDS011;68546;59.142;37.948;2023-11-19T14:20:28;182.80;;;60.57;;
79139;SDS011;68546;59.142;37.948;2023-11-19T14:22:55;181.55;;;60.28;;
79139;SDS011;68546;59.142;37.948;2023-11-19T14:25:21;180.13;;;60.35;;
79139;SDS011;68546;59.142;37.948;2023-11-19T14:27:49;180.93;;;60.50;;